Time;durP1;ratioP1;P1;durP2;ratioP2;P2;SDS_P1;SDS_P2;PMS_P1;PMS_P2;Temp;Humidity;BMP_temperature;BMP_pressure;BME280_temperature;BME280_humidity;BME280_pressure;Samples;Min_cycle;Max_cycle;Signal;HPM_P1;HPM_P2
2021/09/16 00:01:16;;;;;;;5.18;1.00;;;;;;;15.99;78.21;101118.53;5005617;28;20050;-70
2021/09/16 00:03:42;;;;;;;4.70;1.23;;;;;;;15.91;78.81;101123.19;5004676;28;20054;-68
2021/09/16 00:06:09;;;;;;;5.50;1.00;;;;;;;15.98;78.68;101121.22;4995268;28;20519;-68
2021/09/16 00:08:36;;;;;;;5.03;0.85;;;;;;;15.96;76.88;101115.16;4995981;28;20054;-69
2021/09/16 00:11:02;;;;;;;4.93;0.90;;;;;;;15.95;77.09;101121.31;4994559;28;20058;-69
2021/09/16 00:13:29;;;;;;;6.63;1.25;;;;;;;15.96;77.60;101125.66;4995159;28;20108;-68
2021/09/16 00:15:55;;;;;;;4.72;1.20;;;;;;;15.98;77.88;101129.09;4990180;28;20459;-68
2021/09/16 00:18:23;;;;;;;6.70;1.10;;;;;;;16.03;76.95;101121.88;4993710;28;20049;-69
2021/09/16 00:20:51;;;;;;;5.28;0.90;;;;;;;16.02;77.13;101125.41;4994474;28;20092;-68
2021/09/16 00:23:17;;;;;;;7.93;1.05;;;;;;;16.03;77.49;101126.28;5006418;28;20050;-69
2021/09/16 00:25:44;;;;;;;2.65;0.82;;;;;;;16.03;77.49;101127.13;4993183;28;20404;-68
2021/09/16 00:28:11;;;;;;;2.33;0.75;;;;;;;16.05;77.37;101125.31;4995900;28;20049;-69
2021/09/16 00:30:37;;;;;;;6.32;1.00;;;;;;;15.99;77.35;101122.94;5007931;28;20053;-68
2021/09/16 00:33:04;;;;;;;8.73;2.15;;;;;;;16.00;77.07;101120.25;4992250;28;20051;-68
2021/09/16 00:35:31;;;;;;;4.75;1.13;;;;;;;15.97;76.94;101116.88;5002441;28;20096;-69
2021/09/16 00:37:58;;;;;;;7.38;0.98;;;;;;;15.93;77.17;101120.50;5002296;28;20065;-67
2021/09/16 00:40:25;;;;;;;4.20;1.00;;;;;;;15.85;77.89;101133.91;4996798;28;20054;-69
2021/09/16 00:42:51;;;;;;;3.95;0.80;;;;;;;15.81;77.08;101125.25;4990831;28;20488;-68
2021/09/16 00:45:18;;;;;;;2.97;0.75;;;;;;;15.73;77.83;101127.28;4992660;28;20408;-68
2021/09/16 00:47:46;;;;;;;7.10;1.20;;;;;;;15.67;78.01;101122.25;4996988;28;20780;-70
2021/09/16 00:50:13;;;;;;;2.42;0.63;;;;;;;15.60;79.03;101118.13;4993405;28;20054;-68
2021/09/16 00:52:42;;;;;;;5.32;0.70;;;;;;;15.58;79.07;101128.66;4995118;28;20139;-69
2021/09/16 00:55:10;;;;;;;5.00;1.10;;;;;;;15.56;79.61;101130.50;4999106;28;20057;-69
2021/09/16 00:57:38;;;;;;;5.10;0.80;;;;;;;15.55;79.79;101129.63;5001571;28;20038;-68
2021/09/16 01:00:07;;;;;;;4.85;1.23;;;;;;;15.58;79.74;101130.44;4992834;28;20173;-69
2021/09/16 01:02:34;;;;;;;4.60;1.00;;;;;;;15.55;79.66;101131.41;5002754;28;20038;-70
2021/09/16 01:05:00;;;;;;;10.50;1.58;;;;;;;15.48;79.86;101138.59;4993192;28;20050;-70
2021/09/16 01:07:27;;;;;;;7.80;1.02;;;;;;;15.45;80.14;101125.59;4996009;28;20054;-68
2021/09/16 01:09:54;;;;;;;8.35;1.17;;;;;;;15.46;80.33;101129.09;4996995;28;20045;-68
2021/09/16 01:12:21;;;;;;;5.30;1.13;;;;;;;15.46;80.25;101126.47;4991347;28;20105;-69
2021/09/16 01:14:47;;;;;;;5.55;1.63;;;;;;;15.46;80.39;101129.94;4993378;28;20057;-68
2021/09/16 01:17:14;;;;;;;3.65;0.95;;;;;;;15.48;80.12;101136.00;4996943;28;20057;-68
2021/09/16 01:19:40;;;;;;;6.30;1.10;;;;;;;15.43;79.84;101132.66;5000964;28;20045;-69
2021/09/16 01:22:15;;;;;;;6.53;1.50;;;;;;;15.40;80.38;101130.16;4989614;28;20096;-68
2021/09/16 01:24:43;;;;;;;6.28;1.05;;;;;;;15.35;80.79;101129.44;4996875;28;20061;-68
2021/09/16 01:27:09;;;;;;;6.13;0.98;;;;;;;15.32;80.61;101126.94;4990843;28;20054;-68
2021/09/16 01:29:36;;;;;;;3.92;0.90;;;;;;;15.25;81.24;101128.88;4992294;28;20814;-69
2021/09/16 01:32:04;;;;;;;6.55;1.00;;;;;;;15.21;81.81;101135.13;4993927;28;20328;-68
2021/09/16 01:34:31;;;;;;;7.07;1.00;;;;;;;15.20;81.68;101136.03;4994221;28;20041;-68
2021/09/16 01:36:57;;;;;;;6.97;1.13;;;;;;;15.17;81.22;101136.16;4997378;28;20046;-69
2021/09/16 01:39:25;;;;;;;7.65;1.73;;;;;;;15.13;81.65;101134.53;4992414;28;20578;-69
2021/09/16 01:41:53;;;;;;;6.50;1.10;;;;;;;15.06;81.72;101132.09;4996286;28;20410;-65
2021/09/16 01:44:20;;;;;;;4.30;1.23;;;;;;;15.01;82.49;101138.38;4991188;28;20051;-69
2021/09/16 01:46:47;;;;;;;8.52;1.10;;;;;;;14.99;82.39;101142.81;4996444;28;20038;-69
2021/09/16 01:49:19;;;;;;;6.22;1.00;;;;;;;14.95;82.87;101143.81;4993582;28;20039;-69
2021/09/16 01:51:45;;;;;;;5.95;1.83;;;;;;;14.91;82.93;101146.53;4999528;28;20042;-69
2021/09/16 01:54:12;;;;;;;6.85;1.10;;;;;;;14.88;82.83;101136.16;4996126;28;20100;-67
2021/09/16 01:56:38;;;;;;;7.32;1.10;;;;;;;14.85;83.23;101149.31;4993546;28;21443;-69
2021/09/16 01:59:06;;;;;;;6.00;1.30;;;;;;;14.80;83.71;101153.88;4998158;28;20046;-68
2021/09/16 02:01:33;;;;;;;4.07;1.08;;;;;;;14.80;83.63;101148.63;5000143;28;20042;-68
2021/09/16 02:03:59;;;;;;;8.70;1.35;;;;;;;14.78;83.53;101155.66;5006968;28;20046;-69
2021/09/16 02:06:25;;;;;;;5.15;1.35;;;;;;;14.74;83.93;101162.75;4997211;28;20045;-68
2021/09/16 02:08:52;;;;;;;4.22;1.10;;;;;;;14.70;83.85;101162.91;5001084;28;20097;-69
2021/09/16 02:11:18;;;;;;;4.07;1.30;;;;;;;14.67;83.56;101168.22;4998511;28;20061;-68
2021/09/16 02:13:45;;;;;;;9.45;1.30;;;;;;;14.62;83.73;101161.31;5005335;28;20038;-69
2021/09/16 02:16:13;;;;;;;12.15;1.83;;;;;;;14.60;83.79;101164.88;4999144;28;20042;-68
2021/09/16 02:18:39;;;;;;;7.43;2.00;;;;;;;14.55;84.69;101161.56;5005726;28;20050;-69
2021/09/16 02:21:05;;;;;;;7.45;1.55;;;;;;;14.54;84.44;101168.53;4996692;28;20092;-69
2021/09/16 02:23:32;;;;;;;5.65;1.88;;;;;;;14.45;84.84;101167.06;5002582;28;20046;-69
2021/09/16 02:25:58;;;;;;;10.40;2.00;;;;;;;14.41;85.05;101172.41;4999171;28;20046;-68
2021/09/16 02:28:25;;;;;;;5.55;1.52;;;;;;;14.37;85.32;101173.41;4996071;28;20042;-68
2021/09/16 02:30:51;;;;;;;6.72;1.30;;;;;;;14.30;85.33;101176.19;4998943;28;20065;-68
2021/09/16 02:33:19;;;;;;;7.85;1.63;;;;;;;14.31;85.56;101179.66;4993666;28;20034;-68
2021/09/16 02:35:51;;;;;;;6.82;1.48;;;;;;;14.30;85.57;101186.66;4997205;28;20503;-69
2021/09/16 02:38:18;;;;;;;7.35;1.67;;;;;;;14.29;85.86;101174.47;4996814;28;20046;-68
2021/09/16 02:40:44;;;;;;;5.00;1.48;;;;;;;14.25;85.94;101183.31;4994819;28;20046;-68
2021/09/16 02:43:11;;;;;;;5.93;1.50;;;;;;;14.27;85.97;101189.34;4997448;28;20034;-68
2021/09/16 02:45:37;;;;;;;7.90;2.08;;;;;;;14.28;86.37;101198.94;4996160;28;20050;-69
2021/09/16 02:48:04;;;;;;;5.55;1.55;;;;;;;14.28;86.42;101192.81;4993472;28;20053;-69
2021/09/16 02:50:31;;;;;;;7.70;1.92;;;;;;;14.21;86.60;101192.16;5001613;28;20046;-68
2021/09/16 02:52:59;;;;;;;7.47;1.60;;;;;;;14.22;86.71;101193.00;4998572;28;20069;-69
2021/09/16 02:55:25;;;;;;;6.05;1.50;;;;;;;14.21;86.76;101199.13;4996582;28;20100;-69
2021/09/16 02:57:52;;;;;;;8.02;2.28;;;;;;;14.19;86.53;101201.78;5000728;28;20049;-68
2021/09/16 03:00:18;;;;;;;6.30;2.10;;;;;;;14.17;86.63;101202.75;4994615;28;20038;-68
2021/09/16 03:02:44;;;;;;;8.70;2.00;;;;;;;14.08;87.03;101195.97;4998736;28;20046;-68
2021/09/16 03:05:11;;;;;;;4.90;1.83;;;;;;;14.04;87.73;101196.94;4993324;28;20050;-69
2021/09/16 03:07:39;;;;;;;9.32;1.83;;;;;;;14.00;87.27;101198.78;5002514;28;20060;-69
2021/09/16 03:10:06;;;;;;;6.78;2.17;;;;;;;13.93;88.30;101202.47;4994773;28;20054;-69
2021/09/16 03:12:33;;;;;;;7.65;1.60;;;;;;;13.88;88.33;101207.81;4993870;28;20518;-69
2021/09/16 03:15:00;;;;;;;7.90;1.65;;;;;;;13.80;88.94;101199.31;5000643;28;20101;-68
2021/09/16 03:17:26;;;;;;;6.15;1.70;;;;;;;13.73;88.97;101198.59;4998506;28;20504;-69
2021/09/16 03:19:53;;;;;;;11.30;2.20;;;;;;;13.75;89.02;101193.34;4998227;28;20451;-68
2021/09/16 03:22:19;;;;;;;8.60;1.75;;;;;;;13.64;89.59;101201.47;4990938;28;20046;-69
2021/09/16 03:24:47;;;;;;;3.80;1.48;;;;;;;13.67;89.37;101199.63;4997982;28;20103;-68
2021/09/16 03:27:13;;;;;;;9.18;2.28;;;;;;;13.65;89.25;101201.41;5003057;28;20042;-69
2021/09/16 03:29:40;;;;;;;8.25;2.30;;;;;;;13.71;89.20;101207.41;4991516;28;20050;-68
2021/09/16 03:32:07;;;;;;;10.13;2.83;;;;;;;13.63;89.28;101205.81;4990071;28;20042;-68
2021/09/16 03:34:33;;;;;;;6.30;2.45;;;;;;;13.64;89.38;101198.84;4991675;28;20128;-69
2021/09/16 03:37:00;;;;;;;6.50;2.40;;;;;;;13.63;89.41;101203.19;4991190;28;20499;-69
2021/09/16 03:39:26;;;;;;;10.95;2.72;;;;;;;13.54;89.32;101198.19;4992209;28;20041;-68
2021/09/16 03:41:54;;;;;;;8.85;2.47;;;;;;;13.52;90.16;101198.25;4992888;28;20473;-69
2021/09/16 03:44:20;;;;;;;5.97;2.58;;;;;;;13.52;89.80;101202.63;4993271;28;20499;-68
2021/09/16 03:46:47;;;;;;;10.05;3.08;;;;;;;13.53;89.92;101204.31;4995214;28;20058;-69
2021/09/16 03:49:14;;;;;;;5.47;3.13;;;;;;;13.47;90.46;101209.69;4992338;28;20061;-69
2021/09/16 03:51:40;;;;;;;8.00;2.95;;;;;;;13.43;91.01;101216.75;4993387;28;20037;-69
2021/09/16 03:54:06;;;;;;;12.70;3.17;;;;;;;13.40;91.05;101213.34;4998984;28;20049;-70
2021/09/16 03:56:33;;;;;;;9.43;3.03;;;;;;;13.43;91.15;101213.25;5001250;28;20050;-69
2021/09/16 03:59:01;;;;;;;13.75;3.25;;;;;;;13.42;91.16;101206.34;4999756;28;20088;-69
2021/09/16 04:01:27;;;;;;;10.90;3.38;;;;;;;13.36;90.83;101202.94;5002549;28;20045;-69
2021/09/16 04:03:53;;;;;;;10.43;3.90;;;;;;;13.33;91.31;101203.00;4997867;28;20050;-67
2021/09/16 04:06:20;;;;;;;7.78;3.63;;;;;;;13.33;91.62;101207.38;5004085;28;20049;-68
2021/09/16 04:08:46;;;;;;;12.25;4.47;;;;;;;13.32;91.37;101201.31;4964645;28;1045671;-70
2021/09/16 04:11:13;;;;;;;12.63;4.63;;;;;;;13.28;91.88;101197.03;5003987;28;20042;-68
2021/09/16 04:13:39;;;;;;;11.25;4.35;;;;;;;13.28;92.03;101199.66;4999665;28;20049;-69
2021/09/16 04:16:07;;;;;;;7.90;3.90;;;;;;;13.29;92.35;101185.69;4997759;28;20414;-69
2021/09/16 04:18:34;;;;;;;14.13;4.50;;;;;;;13.28;92.09;101191.81;5000262;28;20124;-69
2021/09/16 04:21:00;;;;;;;6.88;3.58;;;;;;;13.27;91.77;101194.47;5000065;28;20107;-69
2021/09/16 04:23:26;;;;;;;8.05;4.13;;;;;;;13.28;92.18;101204.88;5000688;28;20049;-68
2021/09/16 04:25:53;;;;;;;9.75;4.47;;;;;;;13.25;92.00;101206.69;4998873;28;20073;-68
2021/09/16 04:28:19;;;;;;;10.25;3.80;;;;;;;13.20;92.77;101196.34;4991692;28;20078;-68
2021/09/16 04:30:46;;;;;;;13.40;4.55;;;;;;;13.17;92.70;101201.63;4998653;28;20096;-69
2021/09/16 04:33:13;;;;;;;10.02;5.00;;;;;;;13.18;93.08;101198.97;5002289;28;20046;-69
2021/09/16 04:35:40;;;;;;;10.75;4.65;;;;;;;13.16;93.44;101197.31;5001365;28;20062;-67
2021/09/16 04:38:06;;;;;;;13.80;4.80;;;;;;;13.20;93.29;101199.81;5005420;28;20115;-69
2021/09/16 04:40:33;;;;;;;8.35;4.45;;;;;;;13.17;93.91;101199.91;5003826;28;20393;-69
2021/09/16 04:42:59;;;;;;;8.90;4.45;;;;;;;13.21;93.62;101203.31;4996708;28;20507;-69
2021/09/16 04:45:26;;;;;;;11.68;4.72;;;;;;;13.24;93.78;101208.44;4988984;28;20128;-70
2021/09/16 04:47:52;;;;;;;11.15;4.90;;;;;;;13.25;94.09;101210.16;4994023;28;20042;-71
2021/09/16 04:50:20;;;;;;;13.77;5.25;;;;;;;13.28;93.80;101210.09;4990686;28;20061;-71
2021/09/16 04:52:46;;;;;;;11.40;4.43;;;;;;;13.30;93.99;101202.22;4996111;28;20049;-70
2021/09/16 04:55:13;;;;;;;9.52;5.53;;;;;;;13.35;94.58;101205.59;5000409;28;20097;-68
2021/09/16 04:57:40;;;;;;;13.20;5.45;;;;;;;13.36;94.38;101202.09;4992876;28;20674;-69
2021/09/16 05:00:07;;;;;;;10.35;5.45;;;;;;;13.41;93.57;101200.25;5006059;28;20138;-69
2021/09/16 05:02:34;;;;;;;14.55;4.68;;;;;;;13.41;94.57;101204.63;5001900;28;20046;-68
2021/09/16 05:05:00;;;;;;;10.55;4.53;;;;;;;13.35;94.58;101206.44;4991758;28;20057;-68
2021/09/16 05:07:28;;;;;;;9.50;4.43;;;;;;;13.37;94.31;101209.03;4991583;28;20046;-69
2021/09/16 05:09:54;;;;;;;14.15;5.45;;;;;;;13.28;94.96;101207.50;4994549;28;20535;-69
2021/09/16 05:12:21;;;;;;;11.98;5.13;;;;;;;13.27;95.60;101208.38;4995387;28;20053;-69
2021/09/16 05:14:47;;;;;;;14.20;5.13;;;;;;;13.32;95.07;101206.53;4996028;28;20046;-69
2021/09/16 05:17:14;;;;;;;13.98;5.82;;;;;;;13.35;95.32;101211.66;4996623;28;20045;-68
2021/09/16 05:19:40;;;;;;;15.75;4.72;;;;;;;13.36;95.51;101216.00;5001999;28;20049;-69
2021/09/16 05:22:07;;;;;;;9.75;5.03;;;;;;;13.37;95.50;101216.88;5003003;28;20057;-68
2021/09/16 05:24:35;;;;;;;13.13;4.82;;;;;;;13.40;95.88;101215.97;4997307;28;20039;-70
2021/09/16 05:27:02;;;;;;;13.48;5.18;;;;;;;13.44;95.33;101217.59;4999624;28;20056;-68
2021/09/16 05:29:28;;;;;;;8.27;4.53;;;;;;;13.47;95.45;101228.00;5002187;28;20054;-70
2021/09/16 05:31:55;;;;;;;10.02;5.22;;;;;;;13.51;95.36;101221.81;5000414;28;20061;-69
2021/09/16 05:34:21;;;;;;;9.68;5.22;;;;;;;13.59;95.00;101234.66;5004630;28;20205;-69
2021/09/16 05:36:48;;;;;;;16.45;5.40;;;;;;;13.60;95.00;101231.16;5006868;28;20042;-69
2021/09/16 05:39:14;;;;;;;11.02;4.65;;;;;;;13.65;94.65;101229.31;5001671;28;20078;-69
2021/09/16 05:41:42;;;;;;;9.32;5.00;;;;;;;13.68;94.39;101232.72;5003142;28;20053;-70
2021/09/16 05:44:08;;;;;;;9.05;5.10;;;;;;;13.65;94.78;101237.16;5006255;28;20046;-70
2021/09/16 05:46:35;;;;;;;9.20;4.75;;;;;;;13.73;94.53;101234.34;5008978;28;20053;-67
2021/09/16 05:49:02;;;;;;;8.65;5.07;;;;;;;13.68;95.20;101235.31;5004040;28;20471;-70
2021/09/16 05:51:29;;;;;;;12.85;5.15;;;;;;;13.75;95.16;101241.28;4997097;28;21759;-70
2021/09/16 05:53:56;;;;;;;12.68;5.35;;;;;;;13.76;94.98;101240.38;4998102;28;20049;-69
2021/09/16 05:56:22;;;;;;;18.45;6.55;;;;;;;13.76;95.05;101244.72;4998158;28;20046;-69
2021/09/16 05:58:50;;;;;;;11.68;4.53;;;;;;;13.80;94.80;101246.38;4998044;28;20460;-68
2021/09/16 06:01:17;;;;;;;11.35;4.88;;;;;;;13.88;94.92;101247.06;4992598;28;20061;-70
2021/09/16 06:03:43;;;;;;;14.60;5.53;;;;;;;13.88;94.95;101251.41;4997684;28;20054;-70
2021/09/16 06:06:10;;;;;;;13.73;6.25;;;;;;;13.93;94.99;101255.63;4997772;28;20045;-69
2021/09/16 06:08:36;;;;;;;11.88;5.38;;;;;;;14.02;94.78;101246.69;4996374;28;20050;-68
2021/09/16 06:11:02;;;;;;;22.23;6.22;;;;;;;14.04;94.80;101251.88;4998249;28;20050;-69
2021/09/16 06:13:29;;;;;;;10.20;5.07;;;;;;;14.10;94.43;101255.22;4996885;28;20120;-69
2021/09/16 06:15:57;;;;;;;16.40;5.10;;;;;;;14.15;93.72;101252.47;4998622;28;20542;-69
2021/09/16 06:18:23;;;;;;;13.48;5.82;;;;;;;14.21;93.85;101254.06;4995806;28;20448;-68
2021/09/16 06:20:50;;;;;;;9.40;5.55;;;;;;;14.24;93.37;101260.06;5001364;28;20093;-68
2021/09/16 06:23:17;;;;;;;14.52;5.63;;;;;;;14.32;93.21;101254.66;4989418;28;20137;-71
2021/09/16 06:25:43;;;;;;;14.38;5.90;;;;;;;14.33;92.82;101256.38;4995555;28;20055;-69
2021/09/16 06:28:10;;;;;;;13.60;5.50;;;;;;;14.34;93.53;101257.22;4993240;28;20057;-71
2021/09/16 06:30:36;;;;;;;12.98;5.43;;;;;;;14.37;93.38;101262.38;5001195;28;20050;-71
2021/09/16 06:33:04;;;;;;;12.35;5.88;;;;;;;14.43;93.25;101260.47;4995958;28;20054;-71
2021/09/16 06:35:31;;;;;;;15.30;5.70;;;;;;;14.44;93.38;101269.16;4999007;28;21889;-71
2021/09/16 06:37:57;;;;;;;12.18;5.78;;;;;;;14.53;93.23;101271.53;4993725;28;20065;-69
2021/09/16 06:40:24;;;;;;;14.98;6.10;;;;;;;14.56;93.31;101260.97;4997146;28;20056;-71
2021/09/16 06:42:50;;;;;;;11.23;5.43;;;;;;;14.61;92.23;101273.94;5006884;28;20053;-71
2021/09/16 06:45:17;;;;;;;13.15;5.78;;;;;;;14.67;92.52;101275.56;5010897;28;20045;-71
2021/09/16 06:47:43;;;;;;;14.70;6.38;;;;;;;14.71;92.22;101277.22;5010374;28;20046;-71
2021/09/16 06:50:11;;;;;;;11.48;5.95;;;;;;;14.76;91.95;101277.91;5007335;28;20330;-71
2021/09/16 06:52:38;;;;;;;12.35;5.70;;;;;;;14.82;90.85;101277.78;5010303;28;20046;-71
2021/09/16 06:55:05;;;;;;;13.70;6.13;;;;;;;14.77;91.02;101282.25;5006490;28;20049;-68
2021/09/16 06:57:32;;;;;;;13.20;6.60;;;;;;;14.79;90.99;101282.22;5008225;28;20064;-70
2021/09/16 06:59:58;;;;;;;11.93;5.95;;;;;;;14.80;91.68;101276.94;5003352;28;20053;-71
2021/09/16 07:02:25;;;;;;;13.05;5.32;;;;;;;14.89;91.97;101287.16;5004824;28;20046;-71
2021/09/16 07:04:51;;;;;;;13.40;6.32;;;;;;;14.95;91.43;101285.25;5011112;28;20088;-71
2021/09/16 07:07:19;;;;;;;15.50;6.65;;;;;;;15.02;90.45;101286.81;5004708;28;20050;-70
2021/09/16 07:09:45;;;;;;;15.45;6.85;;;;;;;15.08;90.54;101284.00;5007435;28;20049;-71
2021/09/16 07:12:12;;;;;;;15.73;7.13;;;;;;;15.14;90.32;101293.44;5004273;28;20050;-70
2021/09/16 07:14:40;;;;;;;11.93;6.47;;;;;;;15.22;89.51;101288.84;5002784;28;20046;-71
2021/09/16 07:17:07;;;;;;;14.13;6.82;;;;;;;15.23;89.61;101287.94;5010237;28;20442;-70
2021/09/16 07:19:33;;;;;;;13.77;6.38;;;;;;;15.29;89.48;101287.75;5008299;28;20048;-70
2021/09/16 07:22:00;;;;;;;14.80;7.40;;;;;;;15.34;88.78;101290.22;5010434;28;20057;-70
2021/09/16 07:24:28;;;;;;;17.52;7.97;;;;;;;15.29;88.44;101295.59;5007553;28;20056;-70
2021/09/16 07:26:54;;;;;;;13.00;6.70;;;;;;;15.31;88.78;101295.56;5003667;28;20058;-70
2021/09/16 07:29:22;;;;;;;14.70;7.10;;;;;;;15.40;88.57;101292.69;5007598;28;20054;-70
2021/09/16 07:31:49;;;;;;;17.40;7.93;;;;;;;15.40;88.38;101297.91;5005856;28;20511;-70
2021/09/16 07:34:16;;;;;;;12.32;6.78;;;;;;;15.39;88.26;101288.34;5011390;28;20060;-71
2021/09/16 07:36:44;;;;;;;16.05;7.82;;;;;;;15.48;88.23;101297.66;5007305;28;20042;-70
2021/09/16 07:39:11;;;;;;;16.13;6.90;;;;;;;15.49;88.21;101297.63;5008758;28;20050;-70
2021/09/16 07:41:38;;;;;;;16.35;6.50;;;;;;;15.55;87.82;101289.56;5003859;28;20104;-71
2021/09/16 07:44:05;;;;;;;12.15;6.10;;;;;;;15.59;87.34;101305.22;5009008;28;20041;-70
2021/09/16 07:46:32;;;;;;;17.45;7.05;;;;;;;15.66;87.27;101298.84;5009078;28;20046;-70
2021/09/16 07:48:59;;;;;;;15.25;6.88;;;;;;;15.79;86.41;101305.44;5002283;28;20526;-69
2021/09/16 07:51:26;;;;;;;17.38;6.45;;;;;;;15.83;86.34;101306.19;5007262;28;20499;-69
2021/09/16 07:53:53;;;;;;;16.58;6.18;;;;;;;15.92;86.06;101294.59;5009014;28;20050;-70
2021/09/16 07:56:20;;;;;;;14.43;6.00;;;;;;;15.97;85.66;101300.53;5002589;28;20046;-69
2021/09/16 07:58:48;;;;;;;10.98;6.13;;;;;;;16.01;84.44;101310.03;5004936;28;20129;-70
2021/09/16 08:01:15;;;;;;;11.80;5.95;;;;;;;15.98;84.77;101318.84;5003036;28;20046;-70
2021/09/16 08:03:42;;;;;;;9.93;6.13;;;;;;;15.99;85.50;101314.47;5003556;28;20508;-71
2021/09/16 08:06:08;;;;;;;11.65;5.53;;;;;;;16.18;84.83;101312.06;5002996;28;20550;-70
2021/09/16 08:08:35;;;;;;;13.48;6.22;;;;;;;16.33;84.25;101308.06;5002743;28;20065;-69
2021/09/16 08:11:02;;;;;;;15.30;5.82;;;;;;;16.40;82.65;101313.97;5006566;28;20053;-69
2021/09/16 08:13:28;;;;;;;11.55;5.38;;;;;;;16.37;83.34;101304.44;5003334;28;20431;-68
2021/09/16 08:15:56;;;;;;;11.18;5.75;;;;;;;16.35;83.23;101311.50;5008643;28;20046;-70
2021/09/16 08:18:23;;;;;;;11.18;5.45;;;;;;;16.34;82.82;101315.03;5004360;28;20057;-70
2021/09/16 08:20:50;;;;;;;12.15;5.40;;;;;;;16.37;81.88;101314.94;5007085;28;20049;-70
2021/09/16 08:23:17;;;;;;;9.75;5.35;;;;;;;16.37;81.82;101309.69;5003082;28;20041;-70
2021/09/16 08:25:45;;;;;;;8.93;4.90;;;;;;;16.31;82.00;101316.00;5004153;28;20049;-70
2021/09/16 08:28:11;;;;;;;11.60;5.13;;;;;;;16.21;83.00;101313.75;5002950;28;20058;-70
2021/09/16 08:30:38;;;;;;;10.40;4.70;;;;;;;16.24;82.04;101311.00;5007403;28;20047;-69
2021/09/16 08:33:06;;;;;;;9.50;4.78;;;;;;;16.15;82.74;101307.78;5004563;28;20092;-69
2021/09/16 08:35:32;;;;;;;10.15;4.30;;;;;;;16.09;83.81;101321.13;5004006;28;20519;-70
2021/09/16 08:37:59;;;;;;;12.60;4.70;;;;;;;16.14;83.89;101313.94;5007481;28;20048;-70
2021/09/16 08:40:26;;;;;;;8.90;4.28;;;;;;;16.22;83.68;101331.22;5003964;28;20061;-69
2021/09/16 08:42:52;;;;;;;8.82;3.92;;;;;;;16.25;82.95;101325.84;5006869;28;20535;-70
2021/09/16 08:45:21;;;;;;;9.80;3.92;;;;;;;16.26;83.03;101333.69;5003903;28;20396;-69
2021/09/16 08:47:50;;;;;;;10.38;4.22;;;;;;;16.30;82.77;101321.31;5008193;28;20531;-71
2021/09/16 08:50:21;;;;;;;12.68;4.28;;;;;;;16.33;81.98;101323.81;5006502;28;20049;-69
2021/09/16 08:52:48;;;;;;;9.77;4.35;;;;;;;16.34;82.15;101309.78;5004968;28;20053;-70
2021/09/16 08:55:19;;;;;;;10.93;4.38;;;;;;;16.34;82.09;101317.66;5006483;28;20176;-70
2021/09/16 08:57:48;;;;;;;11.10;5.00;;;;;;;16.33;81.54;101310.69;5005473;28;20052;-70
2021/09/16 09:00:17;;;;;;;11.73;4.63;;;;;;;16.33;81.52;101313.31;5002587;28;20428;-70
2021/09/16 09:02:45;;;;;;;9.98;5.03;;;;;;;16.37;82.56;101312.31;5004722;28;20050;-71
2021/09/16 09:05:12;;;;;;;7.07;4.03;;;;;;;16.38;82.46;101314.03;5005225;28;20440;-70
2021/09/16 09:07:41;;;;;;;9.15;4.45;;;;;;;16.43;81.79;101313.88;5003782;28;20049;-70
2021/09/16 09:10:10;;;;;;;8.75;4.20;;;;;;;16.57;80.65;101314.22;5002489;28;20049;-70
2021/09/16 09:12:39;;;;;;;8.98;4.57;;;;;;;16.71;80.85;101321.66;5003331;28;20054;-68
2021/09/16 09:15:10;;;;;;;11.70;5.38;;;;;;;16.85;79.86;101315.03;5006193;28;20045;-71
2021/09/16 09:17:36;;;;;;;16.02;4.80;;;;;;;16.96;79.66;101323.41;5005310;28;21854;-70
2021/09/16 09:20:08;;;;;;;10.32;4.65;;;;;;;17.02;79.55;101327.59;4993738;28;20677;-70
2021/09/16 09:22:37;;;;;;;10.23;4.10;;;;;;;17.11;79.12;101327.25;4998617;28;20050;-70
2021/09/16 09:25:07;;;;;;;9.43;4.35;;;;;;;17.25;79.09;101324.97;4996165;28;20054;-69
2021/09/16 09:27:35;;;;;;;10.18;5.40;;;;;;;17.31;77.32;101328.25;4997311;28;20064;-70
2021/09/16 09:30:08;;;;;;;11.27;4.50;;;;;;;17.36;77.44;101339.47;4996263;28;20058;-70
2021/09/16 09:32:49;;;;;;;11.32;4.55;;;;;;;17.32;77.66;101335.25;5001449;28;20056;-68
2021/09/16 09:35:37;;;;;;;9.30;3.80;;;;;;;17.34;77.77;101336.88;4996239;28;20566;-69
2021/09/16 09:38:06;;;;;;;10.57;3.70;;;;;;;17.33;77.29;101337.78;4996201;28;20066;-69
2021/09/16 09:40:36;;;;;;;8.77;2.90;;;;;;;17.29;76.49;101335.34;5000639;28;20046;-69
2021/09/16 09:43:26;;;;;;;8.60;3.30;;;;;;;17.11;76.79;101343.00;4995911;28;20046;-69
2021/09/16 09:46:04;;;;;;;8.13;3.17;;;;;;;17.06;77.51;101340.56;4996114;28;20049;-69
2021/09/16 09:48:32;;;;;;;13.52;3.70;;;;;;;17.06;77.62;101344.97;4996781;28;20069;-71
2021/09/16 09:50:59;;;;;;;5.30;2.67;;;;;;;17.12;77.44;101342.09;4993111;28;20049;-70
2021/09/16 09:53:26;;;;;;;8.32;2.72;;;;;;;17.21;76.48;101354.06;4999132;28;20132;-69
2021/09/16 09:55:54;;;;;;;11.00;2.85;;;;;;;17.23;76.96;101347.81;4997551;28;20050;-70
2021/09/16 09:58:32;;;;;;;9.27;3.60;;;;;;;17.41;77.98;101348.03;4994692;28;20422;-69
2021/09/16 10:00:59;;;;;;;7.97;3.30;;;;;;;17.60;76.38;101345.56;4997496;28;20471;-70
2021/09/16 10:03:29;;;;;;;6.60;3.00;;;;;;;17.76;75.19;101350.22;4994624;28;20061;-70
2021/09/16 10:06:09;;;;;;;7.63;2.92;;;;;;;17.84;73.89;101349.00;4994925;28;20057;-70
2021/09/16 10:08:36;;;;;;;7.38;2.55;;;;;;;17.82;73.84;101352.59;4995495;28;20519;-69
2021/09/16 10:11:04;;;;;;;7.72;2.50;;;;;;;17.77;72.63;101347.50;4995909;28;20058;-70
2021/09/16 10:13:32;;;;;;;4.85;2.13;;;;;;;17.64;73.36;101347.13;4999374;28;20056;-70
2021/09/16 10:16:03;;;;;;;7.55;1.83;;;;;;;17.61;73.93;101342.03;4996324;28;20046;-69
2021/09/16 10:18:30;;;;;;;7.40;1.90;;;;;;;17.68;77.02;101342.59;4996847;28;20061;-69
2021/09/16 10:20:57;;;;;;;6.63;2.70;;;;;;;18.06;76.89;101332.38;4995529;28;20421;-69
2021/09/16 10:23:26;;;;;;;5.38;2.30;;;;;;;18.33;73.92;101334.75;5003429;28;20058;-69
2021/09/16 10:25:53;;;;;;;9.13;2.30;;;;;;;18.51;77.46;101327.84;5002233;28;20419;-67
2021/09/16 10:28:22;;;;;;;5.70;2.45;;;;;;;18.64;73.16;101321.13;5006639;28;20112;-68
2021/09/16 10:30:50;;;;;;;6.88;2.35;;;;;;;18.88;72.02;101326.22;5004490;28;20079;-70
2021/09/16 10:33:17;;;;;;;5.55;1.60;;;;;;;19.07;71.44;101326.28;5009237;28;20081;-68
2021/09/16 10:35:46;;;;;;;6.00;2.10;;;;;;;19.15;68.84;101330.34;5004684;28;20046;-69
2021/09/16 10:38:24;;;;;;;6.22;1.67;;;;;;;19.36;69.70;101328.50;5001274;28;20056;-68
2021/09/16 10:41:20;;;;;;;8.77;2.38;;;;;;;19.51;68.48;101334.84;5005513;28;20479;-70
2021/09/16 10:43:51;;;;;;;5.88;1.90;;;;;;;19.60;67.83;101344.13;5007447;28;20057;-70
2021/09/16 10:46:28;;;;;;;6.25;1.92;;;;;;;19.55;65.35;101339.91;5008537;28;20056;-71
2021/09/16 10:48:57;;;;;;;7.72;2.00;;;;;;;19.31;65.32;101335.78;5007620;28;20081;-70
2021/09/16 10:51:39;;;;;;;5.65;1.90;;;;;;;19.18;65.43;101338.97;5006285;28;20108;-70
2021/09/16 10:54:37;;;;;;;5.75;1.95;;;;;;;19.02;65.82;101332.69;4999062;28;20043;-70
2021/09/16 10:57:05;;;;;;;4.60;1.70;;;;;;;18.86;66.76;101330.72;5008332;28;20056;-71
2021/09/16 11:00:09;;;;;;;6.75;1.83;;;;;;;18.84;66.67;101329.06;5007123;28;20058;-69
2021/09/16 11:03:15;;;;;;;6.28;1.70;;;;;;;18.84;66.89;101332.56;5006774;28;20241;-70
2021/09/16 11:06:00;;;;;;;7.60;2.25;;;;;;;18.79;67.35;101332.75;4997130;28;20132;-69
2021/09/16 11:09:02;;;;;;;5.20;1.85;;;;;;;18.99;70.09;101332.84;4998326;28;20062;-70
2021/09/16 11:11:49;;;;;;;9.00;1.88;;;;;;;19.19;70.49;101335.44;4999719;28;20065;-70
2021/09/16 11:14:26;;;;;;;5.82;1.60;;;;;;;19.42;67.20;101336.13;5002133;28;20551;-69
2021/09/16 11:16:54;;;;;;;5.70;1.67;;;;;;;19.60;69.40;101334.41;5008942;28;20049;-70
2021/09/16 11:19:20;;;;;;;6.00;1.88;;;;;;;19.81;67.05;101339.56;5003852;28;20053;-68
2021/09/16 11:22:00;;;;;;;6.63;1.88;;;;;;;19.77;66.92;101338.88;5000657;28;20054;-70
2021/09/16 11:24:31;;;;;;;8.32;1.85;;;;;;;19.75;67.04;101342.53;4992763;28;20050;-69
2021/09/16 11:26:57;;;;;;;6.07;1.77;;;;;;;19.94;66.40;101347.78;4996402;28;20049;-69